Time;durP1;ratioP1;P1;durP2;ratioP2;P2;SDS_P1;SDS_P2;PMS_P1;PMS_P2;Temp;Humidity;BMP_temperature;BMP_pressure;BME280_temperature;BME280_humidity;BME280_pressure;Samples;Min_cycle;Max_cycle;Signal;HPM_P1;HPM_P2
2022/06/13 00:01:23;;;;;;;9.50;4.15;;;15.10;99.90;;;;;;7393956;19;20074;-67
2022/06/13 00:03:52;;;;;;;14.07;4.85;;;15.20;99.90;;;;;;7391745;19;20585;-67
2022/06/13 00:06:24;;;;;;;13.98;4.50;;;15.20;99.90;;;;;;7394931;19;20018;-67
2022/06/13 00:08:53;;;;;;;10.60;4.93;;;14.90;99.90;;;;;;7393296;19;20018;-67
2022/06/13 00:11:25;;;;;;;12.77;4.30;;;15.10;99.90;;;;;;7395184;19;20359;-68
2022/06/13 00:13:56;;;;;;;11.25;5.15;;;15.00;99.90;;;;;;7394309;19;20034;-68
2022/06/13 00:16:26;;;;;;;12.48;4.38;;;14.90;99.90;;;;;;7395071;19;20042;-68
2022/06/13 00:18:55;;;;;;;11.77;4.57;;;14.70;99.90;;;;;;7395235;19;20018;-68
2022/06/13 00:21:28;;;;;;;12.88;4.70;;;14.80;99.90;;;;;;7392836;19;20025;-68
2022/06/13 00:23:59;;;;;;;10.60;4.25;;;14.90;99.90;;;;;;7392526;19;20017;-68
2022/06/13 00:26:30;;;;;;;12.15;4.85;;;14.70;99.90;;;;;;7394215;19;20027;-67
2022/06/13 00:28:59;;;;;;;13.85;5.20;;;14.70;99.90;;;;;;7394262;19;20078;-67
2022/06/13 00:31:29;;;;;;;14.07;4.70;;;14.80;99.90;;;;;;7395208;19;20452;-68
2022/06/13 00:33:58;;;;;;;16.15;4.80;;;14.60;99.90;;;;;;7393771;19;20014;-67
2022/06/13 00:36:33;;;;;;;11.10;4.40;;;14.70;99.90;;;;;;7392131;19;20014;-67
2022/06/13 00:39:02;;;;;;;12.15;4.85;;;14.70;99.90;;;;;;7391449;19;20021;-67
2022/06/13 00:41:39;;;;;;;13.68;5.15;;;14.60;99.90;;;;;;7393123;19;20242;-67
2022/06/13 00:44:19;;;;;;;9.70;4.40;;;14.70;99.90;;;;;;7389516;19;20022;-67
2022/06/13 00:46:48;;;;;;;12.63;5.05;;;14.70;99.90;;;;;;7386789;19;20078;-67
2022/06/13 00:49:20;;;;;;;9.88;4.70;;;14.70;99.90;;;;;;7390672;19;20014;-67
2022/06/13 00:51:57;;;;;;;16.42;4.70;;;14.60;99.90;;;;;;7392809;19;20078;-67
2022/06/13 00:54:27;;;;;;;14.65;4.93;;;14.50;99.90;;;;;;7391414;19;20017;-67
2022/06/13 00:56:56;;;;;;;13.13;4.28;;;14.60;99.90;;;;;;7392611;19;20397;-67
2022/06/13 00:59:28;;;;;;;9.88;5.10;;;14.70;99.90;;;;;;7394388;19;20025;-67
2022/06/13 01:01:59;;;;;;;11.48;4.88;;;14.50;99.90;;;;;;7391114;19;20031;-68
2022/06/13 01:04:28;;;;;;;16.35;5.30;;;14.50;99.90;;;;;;7386564;19;20011;-67
2022/06/13 01:07:01;;;;;;;13.77;4.63;;;14.60;99.90;;;;;;7391941;19;20384;-67
2022/06/13 01:12:15;;;;;;;16.35;5.15;;;14.70;99.90;;;;;;7389149;19;20496;-67
2022/06/13 01:15:08;;;;;;;14.15;4.60;;;14.30;99.90;;;;;;7391937;19;20091;-68
2022/06/13 01:18:06;;;;;;;11.07;5.35;;;14.20;99.90;;;;;;7392816;19;20050;-67
2022/06/13 01:20:49;;;;;;;12.88;5.15;;;14.40;99.90;;;;;;7389835;19;20014;-67
2022/06/13 01:23:53;;;;;;;14.05;4.78;;;14.20;99.90;;;;;;7391554;19;20108;-67
2022/06/13 01:26:56;;;;;;;14.75;5.00;;;14.30;99.90;;;;;;7391048;19;20038;-67
2022/06/13 01:29:59;;;;;;;11.68;4.65;;;14.10;99.90;;;;;;7393661;19;20017;-67
2022/06/13 01:32:57;;;;;;;17.50;5.43;;;14.20;99.90;;;;;;7398885;19;20089;-67
2022/06/13 01:35:54;;;;;;;12.63;5.18;;;14.00;99.90;;;;;;7398002;19;20403;-67
2022/06/13 01:38:40;;;;;;;15.50;5.10;;;13.80;99.90;;;;;;7398402;19;20015;-67
2022/06/13 01:41:17;;;;;;;12.82;4.85;;;14.10;99.90;;;;;;7394681;19;20049;-67
2022/06/13 01:43:57;;;;;;;15.25;5.15;;;13.90;99.90;;;;;;7397943;19;20491;-67
2022/06/13 01:46:34;;;;;;;13.60;4.63;;;13.90;99.90;;;;;;7397749;19;20062;-67
2022/06/13 01:49:17;;;;;;;11.77;4.97;;;13.90;99.90;;;;;;7399591;19;20376;-67
2022/06/13 01:51:54;;;;;;;14.63;4.97;;;14.30;99.90;;;;;;7398756;19;20011;-67
2022/06/13 01:54:30;;;;;;;14.60;5.00;;;13.70;99.90;;;;;;7400512;19;20025;-67
2022/06/13 01:57:09;;;;;;;15.50;4.90;;;14.00;99.90;;;;;;7396923;19;20491;-67
2022/06/13 01:59:56;;;;;;;13.50;5.05;;;13.70;99.90;;;;;;7400459;19;20082;-67
2022/06/13 02:02:33;;;;;;;13.90;5.38;;;13.90;99.90;;;;;;7399179;19;20019;-67
2022/06/13 02:05:10;;;;;;;13.77;5.38;;;14.70;99.90;;;;;;7397187;19;20505;-67
2022/06/13 02:07:43;;;;;;;12.30;5.10;;;13.80;99.90;;;;;;7397989;19;20017;-67
2022/06/13 02:10:17;;;;;;;17.92;5.32;;;13.70;99.90;;;;;;7399878;19;20029;-67
2022/06/13 02:12:51;;;;;;;16.13;5.00;;;13.60;99.90;;;;;;7399934;19;20026;-66
2022/06/13 02:15:25;;;;;;;9.90;4.55;;;13.80;99.90;;;;;;7396786;19;20221;-66
2022/06/13 02:18:00;;;;;;;16.45;5.32;;;13.90;99.90;;;;;;7397368;19;20018;-67
2022/06/13 02:20:36;;;;;;;;;;;13.70;99.90;;;;;;7397690;19;20018;-67
2022/06/13 02:23:09;;;;;;;14.25;4.90;;;13.80;99.90;;;;;;7399671;19;20317;-67
2022/06/13 02:25:43;;;;;;;14.27;5.43;;;13.80;99.90;;;;;;7396418;19;20023;-67
2022/06/13 02:28:18;;;;;;;14.15;5.10;;;13.80;99.90;;;;;;7399475;19;20092;-67
2022/06/13 02:30:52;;;;;;;13.40;5.40;;;13.60;99.90;;;;;;7395834;19;20022;-67
2022/06/13 02:33:27;;;;;;;12.73;5.25;;;13.80;99.90;;;;;;7396030;19;20329;-67
2022/06/13 02:36:03;;;;;;;14.90;5.55;;;13.90;99.90;;;;;;7395888;19;20006;-67
2022/06/13 02:38:36;;;;;;;13.07;5.53;;;13.80;99.90;;;;;;7395582;19;20017;-66
2022/06/13 02:41:10;;;;;;;16.92;5.13;;;14.50;99.90;;;;;;7396795;19;20017;-68
2022/06/13 02:43:44;;;;;;;11.20;4.60;;;14.00;99.90;;;;;;7395660;19;20019;-67
2022/06/13 02:46:18;;;;;;;11.63;5.20;;;13.90;99.90;;;;;;7395760;19;20017;-67
2022/06/13 02:48:52;;;;;;;12.05;5.35;;;13.80;99.90;;;;;;7395526;19;20015;-66
2022/06/13 02:51:31;;;;;;;16.35;5.13;;;13.80;99.90;;;;;;7394994;19;20115;-67
2022/06/13 02:54:06;;;;;;;17.83;5.90;;;13.70;99.90;;;;;;7399188;19;20015;-67
2022/06/13 02:57:23;;;;;;;12.88;5.50;;;13.80;99.90;;;;;;7395170;19;20020;-67
2022/06/13 02:59:44;;;;;;;15.55;6.00;;;13.70;99.90;;;;;;7395531;19;20018;-66
2022/06/13 03:02:21;;;;;;;16.90;6.18;;;13.70;99.90;;;;;;7395473;19;20017;-67
2022/06/13 03:04:58;;;;;;;13.23;4.90;;;13.80;99.90;;;;;;7397356;19;20011;-66
2022/06/13 03:07:36;;;;;;;14.20;5.35;;;13.60;99.90;;;;;;7393767;19;20022;-66
2022/06/13 03:10:12;;;;;;;14.93;5.88;;;13.50;99.90;;;;;;7398870;19;20030;-67
2022/06/13 03:12:46;;;;;;;14.02;5.38;;;13.60;99.90;;;;;;7396603;19;20015;-66
2022/06/13 03:15:23;;;;;;;15.60;5.45;;;13.70;99.90;;;;;;7394801;19;20015;-67
2022/06/13 03:17:57;;;;;;;12.15;5.47;;;13.70;99.90;;;;;;7396887;19;20022;-67
2022/06/13 03:20:33;;;;;;;14.13;5.38;;;13.80;99.90;;;;;;7394214;19;20021;-68
2022/06/13 03:23:10;;;;;;;15.98;5.70;;;13.80;99.90;;;;;;7394678;19;20359;-68
2022/06/13 03:25:45;;;;;;;14.35;5.50;;;13.70;99.90;;;;;;7393023;19;20490;-68
2022/06/13 03:28:18;;;;;;;17.63;6.00;;;13.80;99.90;;;;;;7397034;19;20416;-67
2022/06/13 03:30:51;;;;;;;16.75;5.35;;;13.50;99.90;;;;;;7395950;19;20014;-68
2022/06/13 03:36:13;;;;;;;15.05;5.20;;;13.50;99.90;;;;;;7397027;19;20014;-67
2022/06/13 03:38:50;;;;;;;13.50;5.10;;;13.60;99.90;;;;;;7390632;19;20022;-67
2022/06/13 03:41:24;;;;;;;15.77;5.28;;;13.60;99.90;;;;;;7391479;19;20834;-67
2022/06/13 03:43:58;;;;;;;15.65;6.07;;;13.70;99.90;;;;;;7394477;19;20057;-68
2022/06/13 03:46:33;;;;;;;18.55;6.55;;;13.60;99.90;;;;;;7394003;19;20025;-68
2022/06/13 03:49:08;;;;;;;17.80;5.95;;;13.40;99.90;;;;;;7393874;19;20011;-68
2022/06/13 03:51:43;;;;;;;16.48;6.50;;;13.70;99.90;;;;;;7389789;19;20045;-67
2022/06/13 03:54:17;;;;;;;12.13;6.13;;;13.30;99.90;;;;;;7397730;19;20022;-67
2022/06/13 03:56:51;;;;;;;19.40;5.80;;;13.60;99.90;;;;;;7393875;19;20022;-67
2022/06/13 03:59:25;;;;;;;18.38;6.53;;;13.70;99.90;;;;;;7394311;19;20018;-67
2022/06/13 04:01:57;;;;;;;14.00;5.68;;;13.50;99.90;;;;;;7394511;19;20603;-67
2022/06/13 04:04:32;;;;;;;18.60;6.78;;;13.50;99.90;;;;;;7396396;19;20010;-67
2022/06/13 04:07:01;;;;;;;19.52;6.13;;;13.60;99.90;;;;;;7393195;19;20414;-68
2022/06/13 04:09:37;;;;;;;18.70;6.03;;;13.80;99.90;;;;;;7393469;19;20317;-67
2022/06/13 04:12:34;;;;;;;17.05;6.22;;;12.30;99.90;;;;;;7394949;19;20597;-68
2022/06/13 04:15:40;;;;;;;13.07;5.72;;;13.70;99.90;;;;;;7390303;19;20018;-68
2022/06/13 04:18:18;;;;;;;16.27;6.30;;;13.40;99.90;;;;;;7393252;19;20014;-67
2022/06/13 04:20:56;;;;;;;14.32;5.63;;;13.60;99.90;;;;;;7392507;19;20011;-68
2022/06/13 04:23:33;;;;;;;17.35;5.97;;;13.40;99.90;;;;;;7394946;19;20025;-67
2022/06/13 04:26:13;;;;;;;16.38;5.45;;;13.50;99.90;;;;;;7391733;19;20011;-67
2022/06/13 04:28:47;;;;;;;14.35;5.78;;;13.50;99.90;;;;;;7392961;19;20085;-66
2022/06/13 04:31:18;;;;;;;15.73;6.22;;;13.40;99.90;;;;;;7393679;19;20081;-67
2022/06/13 04:33:52;;;;;;;19.42;6.97;;;13.50;99.90;;;;;;7392892;19;20010;-66
2022/06/13 04:36:22;;;;;;;21.83;6.35;;;13.50;99.90;;;;;;7392656;19;20011;-67
2022/06/13 04:38:56;;;;;;;14.48;6.15;;;13.40;99.90;;;;;;7391535;19;20023;-67
2022/06/13 04:41:30;;;;;;;14.13;5.55;;;13.50;99.90;;;;;;7393403;19;20022;-67
2022/06/13 04:44:04;;;;;;;15.52;5.22;;;13.40;99.90;;;;;;7395451;19;20021;-67
2022/06/13 04:46:34;;;;;;;16.10;6.32;;;13.40;99.90;;;;;;7391334;19;20023;-67
2022/06/13 04:49:07;;;;;;;13.52;6.18;;;13.50;99.90;;;;;;7392326;19;20019;-67
2022/06/13 04:51:42;;;;;;;16.10;6.43;;;14.30;99.90;;;;;;7391795;19;20022;-67
2022/06/13 04:54:19;;;;;;;17.07;5.80;;;13.10;99.90;;;;;;7391464;19;20015;-68
2022/06/13 04:56:53;;;;;;;15.45;6.03;;;13.60;99.90;;;;;;7392798;19;20370;-68
2022/06/13 04:59:22;;;;;;;12.55;5.05;;;13.50;99.90;;;;;;7391466;19;20471;-67
2022/06/13 05:01:52;;;;;;;18.45;6.32;;;13.60;99.90;;;;;;7394342;19;20495;-67
2022/06/13 05:04:25;;;;;;;16.25;5.10;;;13.40;99.90;;;;;;7399825;19;20025;-67
2022/06/13 05:06:57;;;;;;;18.50;5.40;;;13.60;99.90;;;;;;7400485;19;20029;-67
2022/06/13 05:09:30;;;;;;;13.68;5.85;;;13.70;99.90;;;;;;7399588;19;20011;-67
2022/06/13 05:12:10;;;;;;;14.95;5.07;;;13.60;99.90;;;;;;7398075;19;20019;-67
2022/06/13 05:14:45;;;;;;;10.10;4.30;;;13.50;99.90;;;;;;7399918;19;20018;-67
2022/06/13 05:17:55;;;;;;;12.50;4.53;;;13.50;99.90;;;;;;7398237;19;20010;-67
2022/06/13 05:20:34;;;;;;;13.07;4.53;;;13.50;99.90;;;;;;7396344;19;20018;-67
2022/06/13 05:23:23;;;;;;;11.20;4.72;;;13.20;99.90;;;;;;7397762;19;20011;-67
2022/06/13 05:25:54;;;;;;;8.18;4.05;;;13.70;99.90;;;;;;7400420;19;20018;-67
2022/06/13 05:28:29;;;;;;;8.40;4.15;;;13.50;99.90;;;;;;7400158;19;20015;-67
2022/06/13 05:31:00;;;;;;;11.90;3.97;;;13.70;99.90;;;;;;7398632;19;20014;-67
2022/06/13 05:33:33;;;;;;;10.30;3.90;;;13.70;99.90;;;;;;7399805;19;20570;-67
2022/06/13 05:36:05;;;;;;;12.25;3.35;;;13.80;99.90;;;;;;7401845;19;20010;-67
2022/06/13 05:38:37;;;;;;;9.18;3.40;;;13.70;99.90;;;;;;7398147;19;20027;-67
2022/06/13 05:41:06;;;;;;;10.45;3.30;;;13.80;99.90;;;;;;7399503;19;20014;-67
2022/06/13 05:43:38;;;;;;;9.32;2.80;;;13.80;99.90;;;;;;7398159;19;20070;-66
2022/06/13 05:46:08;;;;;;;10.60;3.25;;;13.80;99.90;;;;;;7397264;19;20014;-67
2022/06/13 05:48:37;;;;;;;8.57;2.75;;;13.60;99.90;;;;;;7398856;19;20392;-67
2022/06/13 05:51:07;;;;;;;8.50;2.90;;;13.80;99.90;;;;;;7397868;19;20019;-67
2022/06/13 05:53:36;;;;;;;9.30;2.90;;;;;;;;;;7401216;19;20021;-67
2022/06/13 05:56:05;;;;;;;11.80;3.08;;;13.70;99.90;;;;;;7396735;19;20034;-67
2022/06/13 05:58:36;;;;;;;7.28;2.55;;;13.70;99.90;;;;;;7397145;19;20015;-67
2022/06/13 06:01:06;;;;;;;7.88;2.60;;;13.10;99.90;;;;;;7395311;19;20070;-67
2022/06/13 06:03:35;;;;;;;13.95;2.65;;;13.50;99.90;;;;;;7394387;19;20090;-67
2022/06/13 06:06:04;;;;;;;8.57;3.03;;;13.40;99.90;;;;;;7396561;19;20018;-66
2022/06/13 06:08:37;;;;;;;10.02;2.95;;;13.40;99.90;;;;;;7395623;19;20528;-67
2022/06/13 06:11:07;;;;;;;5.90;2.67;;;13.40;99.90;;;;;;7395126;19;20025;-67
2022/06/13 06:13:38;;;;;;;6.43;2.60;;;13.30;99.90;;;;;;7391539;19;20018;-65
2022/06/13 06:16:08;;;;;;;8.45;2.85;;;13.40;99.90;;;;;;7394755;19;20021;-66
2022/06/13 06:18:37;;;;;;;4.85;2.10;;;13.30;99.90;;;;;;7392978;19;20031;-66
2022/06/13 06:21:06;;;;;;;6.63;2.15;;;13.20;99.90;;;;;;7398125;19;20014;-65
2022/06/13 06:23:36;;;;;;;6.55;1.90;;;13.40;99.90;;;;;;7398002;19;20488;-66
2022/06/13 06:26:05;;;;;;;5.57;1.83;;;13.30;99.90;;;;;;7396790;19;20010;-66
2022/06/13 06:28:38;;;;;;;7.40;1.98;;;13.40;99.90;;;;;;7398380;19;20086;-64
2022/06/13 06:31:07;;;;;;;4.65;1.70;;;13.40;99.90;;;;;;7386524;19;20483;-65
2022/06/13 06:33:36;;;;;;;7.75;2.25;;;13.30;99.90;;;;;;7392539;19;20014;-65
2022/06/13 06:36:05;;;;;;;10.05;2.13;;;13.60;99.90;;;;;;7385553;19;20031;-65
2022/06/13 06:38:35;;;;;;;6.25;1.98;;;13.60;99.90;;;;;;7393511;19;20048;-64
2022/06/13 06:41:04;;;;;;;7.38;1.80;;;13.70;99.90;;;;;;7399276;19;20074;-64
2022/06/13 06:43:33;;;;;;;21.33;2.42;;;13.70;99.90;;;;;;7399389;19;20376;-65
2022/06/13 06:46:05;;;;;;;6.30;1.85;;;13.60;99.90;;;;;;7395906;19;20014;-64
2022/06/13 06:48:36;;;;;;;7.63;1.80;;;13.50;99.90;;;;;;7392479;19;20104;-64
2022/06/13 06:51:08;;;;;;;5.45;1.58;;;13.70;99.90;;;;;;7387225;19;20341;-65
2022/06/13 07:01:44;;;;;;;5.35;2.03;;;14.00;99.90;;;;;;7390852;19;20015;-64
2022/06/13 07:04:13;;;;;;;7.78;1.95;;;14.00;99.90;;;;;;7392701;19;20014;-65
2022/06/13 07:06:42;;;;;;;8.27;1.75;;;14.00;99.90;;;;;;7391839;19;20029;-64
2022/06/13 07:09:11;;;;;;;8.93;1.88;;;14.00;99.90;;;;;;7393745;19;20017;-64
2022/06/13 07:14:25;;;;;;;3.42;1.60;;;13.70;99.90;;;;;;7397758;19;20022;-64
2022/06/13 07:16:58;;;;;;;1.85;1.08;;;13.60;99.90;;;;;;7393548;19;20951;-65
2022/06/13 07:19:28;;;;;;;2.97;1.02;;;13.50;99.90;;;;;;7392849;19;20035;-65
2022/06/13 07:21:57;;;;;;;1.98;0.90;;;13.50;99.90;;;;;;7393551;19;20018;-65
2022/06/13 07:24:26;;;;;;;1.63;0.80;;;13.60;99.90;;;;;;7397580;19;20052;-65
2022/06/13 07:26:55;;;;;;;2.15;0.80;;;13.50;99.90;;;;;;7389686;19;20031;-66
2022/06/13 07:29:25;;;;;;;2.63;0.90;;;13.60;99.90;;;;;;7394233;19;20021;-65
2022/06/13 07:32:00;;;;;;;2.13;0.90;;;13.70;99.90;;;;;;7397945;19;20077;-66
2022/06/13 07:34:31;;;;;;;;;;;13.70;99.90;;;;;;7398731;19;20021;-66
2022/06/13 07:37:02;;;;;;;3.05;0.75;;;13.60;99.90;;;;;;7390837;19;19919;-66
2022/06/13 07:39:31;;;;;;;2.63;1.00;;;13.70;99.90;;;;;;7391214;19;20082;-66
2022/06/13 07:42:00;;;;;;;3.72;1.13;;;13.50;99.90;;;;;;7393429;19;20209;-65
2022/06/13 07:44:32;;;;;;;5.03;1.20;;;13.40;99.90;;;;;;7394175;19;20356;-66
2022/06/13 07:47:05;;;;;;;2.13;1.00;;;13.50;99.90;;;;;;7395768;19;20014;-66
2022/06/13 07:49:34;;;;;;;3.72;1.30;;;13.50;99.90;;;;;;7393785;19;20028;-66
2022/06/13 07:52:03;;;;;;;2.70;1.00;;;13.60;99.90;;;;;;7396633;19;20014;-66
2022/06/13 07:54:31;;;;;;;6.57;1.27;;;14.20;99.90;;;;;;7393290;19;20022;-65
2022/06/13 07:57:01;;;;;;;6.90;1.30;;;14.10;99.90;;;;;;7394077;19;20007;-65
2022/06/13 07:59:31;;;;;;;3.08;1.50;;;13.80;99.90;;;;;;7393271;19;20010;-65
2022/06/13 08:02:03;;;;;;;4.10;1.70;;;13.80;99.90;;;;;;7393275;19;20037;-65
2022/06/13 08:04:32;;;;;;;4.25;1.30;;;13.70;99.90;;;;;;7395126;19;20035;-65
2022/06/13 08:07:01;;;;;;;10.27;1.60;;;13.80;99.90;;;;;;7393829;19;20483;-65
2022/06/13 08:09:31;;;;;;;5.97;1.83;;;13.50;99.90;;;;;;7392687;19;20021;-66
2022/06/13 08:12:00;;;;;;;6.38;1.42;;;13.90;99.90;;;;;;7396167;19;20020;-65
2022/06/13 08:14:29;;;;;;;8.45;1.92;;;13.60;99.90;;;;;;7392936;19;20014;-66
2022/06/13 08:16:58;;;;;;;7.40;1.30;;;13.60;99.90;;;;;;7394500;19;20037;-65
2022/06/13 08:19:29;;;;;;;5.07;1.48;;;13.80;99.90;;;;;;7393467;19;20018;-65
2022/06/13 08:21:58;;;;;;;5.28;1.88;;;13.80;99.90;;;;;;7395633;19;20078;-65
2022/06/13 08:24:27;;;;;;;7.38;1.60;;;14.20;99.90;;;;;;7395362;19;20014;-65
2022/06/13 08:26:56;;;;;;;6.07;1.85;;;13.80;99.90;;;;;;7390798;19;20090;-65
2022/06/13 08:29:25;;;;;;;4.80;1.20;;;14.10;99.90;;;;;;7392934;19;20070;-64
2022/06/13 08:31:54;;;;;;;7.25;1.70;;;14.20;99.90;;;;;;7391931;19;20309;-65
2022/06/13 08:34:25;;;;;;;4.82;1.27;;;13.80;99.90;;;;;;7393075;19;20022;-66
2022/06/13 08:36:57;;;;;;;6.43;1.67;;;13.70;99.90;;;;;;7392499;19;20019;-66
2022/06/13 08:39:27;;;;;;;4.13;1.98;;;14.50;99.90;;;;;;7398386;19;20011;-65
2022/06/13 08:42:00;;;;;;;7.45;1.52;;;13.80;99.90;;;;;;7402277;19;20024;-65
2022/06/13 08:44:57;;;;;;;7.90;1.83;;;13.90;99.90;;;;;;7402615;19;20018;-65
2022/06/13 08:47:44;;;;;;;5.80;2.25;;;13.40;99.90;;;;;;7397010;19;20022;-65
2022/06/13 08:50:30;;;;;;;7.05;1.40;;;13.70;99.90;;;;;;7399929;19;20021;-65
2022/06/13 08:53:06;;;;;;;5.18;1.58;;;13.60;99.90;;;;;;7399512;19;20045;-65
2022/06/13 08:55:41;;;;;;;4.60;1.60;;;13.60;99.90;;;;;;7397713;19;20019;-65
2022/06/13 08:58:18;;;;;;;6.53;1.50;;;13.70;99.90;;;;;;7398903;19;20043;-66
2022/06/13 09:00:51;;;;;;;4.63;1.27;;;13.90;99.90;;;;;;7399083;19;20506;-65
2022/06/13 09:03:26;;;;;;;6.85;1.10;;;14.10;99.90;;;;;;7399261;19;20353;-65
2022/06/13 09:05:59;;;;;;;5.00;1.20;;;14.10;99.90;;;;;;7397741;19;20044;-65
2022/06/13 09:08:40;;;;;;;3.97;1.15;;;14.40;99.90;;;;;;7401709;19;20010;-65
2022/06/13 09:11:16;;;;;;;8.60;1.30;;;14.60;99.90;;;;;;7395573;19;20365;-65
2022/06/13 09:13:52;;;;;;;4.60;1.52;;;14.80;99.90;;;;;;7398057;19;20010;-65
2022/06/13 09:16:29;;;;;;;3.67;1.20;;;14.90;99.90;;;;;;7401987;19;20078;-65
2022/06/13 09:19:04;;;;;;;6.10;1.25;;;14.70;99.90;;;;;;7396807;19;20448;-65
2022/06/13 09:21:40;;;;;;;4.75;1.30;;;15.20;99.90;;;;;;7397073;19;20043;-65
2022/06/13 09:24:17;;;;;;;5.95;1.10;;;15.10;99.90;;;;;;7400567;19;20011;-64
2022/06/13 09:26:50;;;;;;;8.85;1.50;;;15.00;99.90;;;;;;7396080;19;20010;-64
2022/06/13 09:29:26;;;;;;;13.85;2.05;;;14.50;99.90;;;;;;7395783;19;20014;-63
2022/06/13 09:32:00;;;;;;;5.75;1.30;;;15.00;99.90;;;;;;7400966;19;20361;-64
2022/06/13 09:34:36;;;;;;;6.85;1.20;;;15.00;99.90;;;;;;7397181;19;20018;-63
2022/06/13 09:37:13;;;;;;;3.58;1.02;;;15.10;99.90;;;;;;7397884;19;20177;-64
2022/06/13 09:39:46;;;;;;;3.45;1.52;;;15.30;99.90;;;;;;7397511;19;20504;-63
2022/06/13 09:42:43;;;;;;;4.32;1.23;;;15.50;99.90;;;;;;7399832;19;20102;-64
2022/06/13 09:45:28;;;;;;;3.65;1.23;;;15.50;99.90;;;;;;7398718;19;20018;-64
2022/06/13 09:48:08;;;;;;;3.67;1.10;;;15.70;99.90;;;;;;7395177;19;20030;-64
2022/06/13 09:50:46;;;;;;;4.78;1.30;;;15.50;99.90;;;;;;7397014;19;20023;-64
2022/06/13 09:53:23;;;;;;;3.10;1.40;;;15.60;99.90;;;;;;7396602;19;20026;-64
2022/06/13 09:56:02;;;;;;;5.57;1.33;;;15.50;99.90;;;;;;7396506;19;20074;-64
2022/06/13 09:58:43;;;;;;;5.22;1.50;;;15.40;99.90;;;;;;7396884;19;20041;-64
2022/06/13 10:01:21;;;;;;;8.57;1.60;;;15.70;99.90;;;;;;7395811;19;20042;-64
2022/06/13 10:03:59;;;;;;;6.72;1.30;;;15.90;99.90;;;;;;7396991;19;20061;-65
2022/06/13 10:06:38;;;;;;;4.82;1.35;;;15.90;99.90;;;;;;7391845;19;20365;-64
2022/06/13 10:09:21;;;;;;;4.32;1.00;;;16.10;99.90;;;;;;7396459;19;20375;-63
2022/06/13 10:12:03;;;;;;;3.50;1.17;;;16.10;99.90;;;;;;7394907;19;20011;-64
2022/06/13 10:14:56;;;;;;;5.35;1.02;;;16.00;99.90;;;;;;7396170;19;20632;-64
2022/06/13 10:17:37;;;;;;;5.28;1.40;;;16.20;99.90;;;;;;7388875;19;20086;-62
2022/06/13 10:20:17;;;;;;;5.22;1.20;;;16.10;99.40;;;;;;7399256;19;20383;-62
2022/06/13 10:22:53;;;;;;;5.38;1.38;;;16.10;99.00;;;;;;7396128;19;20356;-64
2022/06/13 10:25:38;;;;;;;4.65;1.30;;;16.40;99.00;;;;;;7396863;19;20014;-66
2022/06/13 10:28:27;;;;;;;2.78;1.20;;;16.10;98.60;;;;;;7394014;19;20023;-65
2022/06/13 10:31:04;;;;;;;6.00;1.70;;;16.10;99.10;;;;;;7395750;19;20026;-65
2022/06/13 10:33:44;;;;;;;8.73;1.65;;;16.50;99.90;;;;;;7395445;19;20014;-64
2022/06/13 10:36:20;;;;;;;7.40;1.48;;;16.20;99.30;;;;;;7396808;19;20491;-64
2022/06/13 10:38:54;;;;;;;;;;;16.10;99.00;;;;;;7397454;19;20356;-64
2022/06/13 10:41:25;;;;;;;8.65;1.70;;;16.00;99.70;;;;;;7397516;19;19929;-64
2022/06/13 10:43:59;;;;;;;4.88;1.50;;;16.10;99.90;;;;;;7395332;19;20479;-65
2022/06/13 10:46:28;;;;;;;8.00;1.80;;;15.80;99.90;;;;;;7396484;19;20034;-64
2022/06/13 10:49:02;;;;;;;8.90;1.80;;;16.00;99.90;;;;;;7394662;19;21334;-64
2022/06/13 10:51:31;;;;;;;5.60;1.75;;;16.10;99.40;;;;;;7393955;19;20029;-64
2022/06/13 10:54:09;;;;;;;5.38;1.25;;;16.30;99.50;;;;;;7397400;19;20475;-65
2022/06/13 10:56:43;;;;;;;5.53;1.65;;;16.50;99.00;;;;;;7394435;19;20011;-64
2022/06/13 10:59:30;;;;;;;5.75;1.83;;;16.60;98.80;;;;;;7393761;19;20018;-63
2022/06/13 11:02:03;;;;;;;4.63;1.30;;;16.80;99.10;;;;;;7396701;19;20015;-64
2022/06/13 11:04:34;;;;;;;4.75;1.55;;;16.60;99.40;;;;;;7394399;19;20014;-64
2022/06/13 11:07:07;;;;;;;6.30;1.70;;;16.70;99.70;;;;;;7391494;19;20096;-64
2022/06/13 11:09:39;;;;;;;4.05;1.25;;;16.80;99.30;;;;;;7394114;19;20010;-63
2022/06/13 11:12:31;;;;;;;8.85;1.77;;;16.70;99.30;;;;;;7392629;19;20019;-64
2022/06/13 11:23:19;;;;;;;5.32;1.63;;;16.50;99.90;;;;;;7396930;19;20018;-64
2022/06/13 11:25:57;;;;;;;6.80;1.50;;;16.70;98.60;;;;;;7395782;19;20010;-63
2022/06/13 11:28:29;;;;;;;8.90;1.67;;;16.80;99.00;;;;;;7393706;19;20015;-63
2022/06/13 11:31:17;;;;;;;8.88;1.65;;;17.00;99.20;;;;;;7395712;19;20021;-64
2022/06/13 11:33:46;;;;;;;9.38;1.80;;;16.80;99.20;;;;;;7395659;19;20030;-64
2022/06/13 11:36:24;;;;;;;7.32;1.70;;;16.70;99.10;;;;;;7395290;19;20022;-65
2022/06/13 11:38:56;;;;;;;7.25;2.05;;;16.40;99.10;;;;;;7391351;19;20021;-64
2022/06/13 11:41:28;;;;;;;7.50;1.80;;;16.30;98.70;;;;;;7394065;19;20355;-63
2022/06/13 11:44:02;;;;;;;7.50;1.90;;;16.50;99.00;;;;;;7392775;19;20015;-64
2022/06/13 11:46:45;;;;;;;10.15;1.95;;;16.30;99.50;;;;;;7391548;19;20006;-64
2022/06/13 11:49:32;;;;;;;10.43;2.00;;;16.30;99.90;;;;;;7396433;19;20031;-63
2022/06/13 11:52:06;;;;;;;6.55;1.60;;;16.30;99.90;;;;;;7393169;19;20025;-64
2022/06/13 11:54:39;;;;;;;9.50;2.10;;;16.50;99.90;;;;;;7398367;19;20026;-64
2022/06/13 11:57:34;;;;;;;5.97;1.85;;;16.60;99.90;;;;;;7393270;19;20077;-64
2022/06/13 12:00:07;;;;;;;13.32;2.15;;;16.80;99.30;;;;;;7393339;19;20384;-64
2022/06/13 12:03:00;;;;;;;8.63;1.98;;;16.50;99.70;;;;;;7392880;19;20056;-64
2022/06/13 12:05:36;;;;;;;5.90;1.73;;;16.90;99.90;;;;;;7394706;19;20014;-64
2022/06/13 12:08:11;;;;;;;5.88;1.85;;;16.90;98.90;;;;;;7391738;19;20034;-63
2022/06/13 12:10:44;;;;;;;5.85;1.58;;;17.00;99.40;;;;;;7391359;19;20018;-64
2022/06/13 12:13:20;;;;;;;7.90;1.73;;;17.10;98.80;;;;;;7392268;19;20014;-64
2022/06/13 12:15:54;;;;;;;5.97;1.30;;;17.20;98.80;;;;;;7392717;19;20022;-64
2022/06/13 12:18:32;;;;;;;6.15;1.50;;;17.00;98.40;;;;;;7392303;19;20014;-64
2022/06/13 12:21:06;;;;;;;10.10;1.83;;;16.90;97.30;;;;;;7390843;19;20014;-64
2022/06/13 12:23:41;;;;;;;6.80;1.50;;;16.90;97.80;;;;;;7394653;19;20424;-64
2022/06/13 12:26:16;;;;;;;7.03;1.55;;;17.00;98.30;;;;;;7397357;19;20086;-64
2022/06/13 12:28:53;;;;;;;6.57;1.48;;;17.30;98.40;;;;;;7393777;19;20010;-66
2022/06/13 12:31:28;;;;;;;5.47;1.60;;;17.20;98.20;;;;;;7393211;19;20034;-66
2022/06/13 12:34:10;;;;;;;8.25;1.50;;;17.20;97.20;;;;;;7397211;19;20014;-66
2022/06/13 12:37:00;;;;;;;4.03;1.50;;;16.90;97.00;;;;;;7392191;19;20062;-66
2022/06/13 12:39:47;;;;;;;6.93;1.30;;;16.90;97.80;;;;;;7394457;19;20027;-66
2022/06/13 12:42:40;;;;;;;7.28;1.50;;;16.70;97.70;;;;;;7392775;19;20022;-66
2022/06/13 12:45:57;;;;;;;5.63;1.10;;;16.90;97.90;;;;;;7392194;19;20011;-67
2022/06/13 12:48:32;;;;;;;3.20;1.03;;;16.80;96.90;;;;;;7387222;19;20017;-66
2022/06/13 12:51:12;;;;;;;3.53;1.10;;;16.90;96.90;;;;;;7390319;19;20346;-65
2022/06/13 12:54:06;;;;;;;5.03;1.30;;;16.90;96.60;;;;;;7392533;19;20047;-65
2022/06/13 12:56:42;;;;;;;5.93;1.02;;;17.50;96.40;;;;;;7391795;19;20006;-66
2022/06/13 12:59:26;;;;;;;7.13;1.60;;;17.40;95.50;;;;;;7394379;19;20022;-65
2022/06/13 13:02:04;;;;;;;3.38;1.00;;;17.70;95.50;;;;;;7394541;19;20014;-65
2022/06/13 13:05:05;;;;;;;4.50;1.10;;;17.90;95.10;;;;;;7388455;19;20025;-65
2022/06/13 13:07:46;;;;;;;3.28;1.13;;;18.10;94.30;;;;;;7388772;19;20475;-65
2022/06/13 13:10:36;;;;;;;4.30;1.33;;;18.30;95.00;;;;;;7391061;19;20006;-65
2022/06/13 13:13:22;;;;;;;5.13;1.40;;;18.70;95.90;;;;;;7392186;19;20131;-65
2022/06/13 13:16:00;;;;;;;5.65;1.60;;;18.70;95.20;;;;;;7393899;19;20379;-65
2022/06/13 13:18:41;;;;;;;5.00;1.40;;;18.70;93.70;;;;;;7389957;19;20030;-65
2022/06/13 13:21:17;;;;;;;2.28;1.15;;;18.50;93.20;;;;;;7385282;19;20040;-65
2022/06/13 13:23:56;;;;;;;8.15;1.27;;;18.00;93.00;;;;;;7391843;19;20011;-66
2022/06/13 13:26:35;;;;;;;6.45;1.27;;;17.80;93.50;;;;;;7396188;19;20094;-65
2022/06/13 13:29:16;;;;;;;6.10;1.60;;;17.80;94.00;;;;;;7390094;19;20018;-66
2022/06/13 13:31:49;;;;;;;5.45;1.20;;;17.60;94.20;;;;;;7393989;19;20041;-65
2022/06/13 13:34:34;;;;;;;9.93;1.33;;;17.40;95.10;;;;;;7393097;19;20014;-65
2022/06/13 13:37:16;;;;;;;5.13;1.20;;;17.50;94.90;;;;;;7398397;19;20031;-66
2022/06/13 13:39:55;;;;;;;4.25;1.20;;;17.60;94.70;;;;;;7394142;19;20015;-65
2022/06/13 13:42:30;;;;;;;4.13;1.27;;;17.70;93.10;;;;;;7397423;19;20018;-66
2022/06/13 13:45:06;;;;;;;6.35;1.45;;;17.90;94.30;;;;;;7398840;19;20021;-66
2022/06/13 13:47:37;;;;;;;3.50;1.02;;;17.90;94.80;;;;;;7399028;19;20010;-66
2022/06/13 13:50:09;;;;;;;5.50;1.52;;;18.20;94.60;;;;;;7398373;19;20035;-65
2022/06/13 13:52:40;;;;;;;7.68;1.33;;;17.90;93.90;;;;;;7399727;19;20013;-66